createdAt,value
2023-02-17T00:00:09.271Z,100682.25
2023-02-17T00:02:37.758Z,100675.44
2023-02-17T00:05:08.328Z,100675.53
2023-02-17T00:07:37.034Z,100674.03
2023-02-17T00:10:05.712Z,100673.84
2023-02-17T00:12:34.268Z,100670.28
2023-02-17T00:15:02.669Z,100671.91
2023-02-17T00:17:31.057Z,100661.50
2023-02-17T00:19:59.469Z,100664.84
2023-02-17T00:22:29.362Z,100672.16
2023-02-17T00:24:57.877Z,100672.28
2023-02-17T00:27:26.312Z,100664.50
2023-02-17T00:29:54.769Z,100668.81
2023-02-17T00:32:23.237Z,100668.81
2023-02-17T00:34:53.519Z,100665.44
2023-02-17T00:37:21.955Z,100665.44
2023-02-17T00:39:52.232Z,100671.63
2023-02-17T00:42:20.917Z,100662.06
2023-02-17T00:44:49.362Z,100672.47
2023-02-17T00:47:17.702Z,100661.31
2023-02-17T00:49:46.220Z,100662.06
2023-02-17T00:52:14.597Z,100657.69
2023-02-17T00:54:42.989Z,100667.31
2023-02-17T00:57:12.853Z,100643.91
2023-02-17T00:59:41.237Z,100647.28
2023-02-17T01:02:10.144Z,100640.09
2023-02-17T01:04:38.620Z,100641.66
2023-02-17T01:07:07.023Z,100635.47
2023-02-17T01:09:35.515Z,100630.44
2023-02-17T01:12:03.940Z,100636.34
2023-02-17T01:14:33.723Z,100640.72
2023-02-17T01:17:02.113Z,100631.19
2023-02-17T01:19:30.679Z,100621.81
2023-02-17T01:21:59.072Z,100611.75
2023-02-17T01:24:27.445Z,100625.19
2023-02-17T01:26:55.905Z,100625.94
2023-02-17T01:29:24.535Z,100626.59
2023-02-17T01:31:54.621Z,100630.91
2023-02-17T01:34:23.069Z,100622.91
2023-02-17T01:36:51.620Z,100613.50
2023-02-17T01:39:22.495Z,100615.81
2023-02-17T01:41:50.999Z,100612.03
2023-02-17T01:44:21.959Z,100619.72
2023-02-17T01:46:51.488Z,100614.28
2023-02-17T01:49:28.785Z,100615.00
2023-02-17T01:52:02.147Z,100606.22
2023-02-17T01:54:34.757Z,100602.44
2023-02-17T01:57:04.143Z,100607.50
2023-02-17T01:59:32.951Z,100598.47
2023-02-17T02:02:05.305Z,100592.41
2023-02-17T02:04:42.380Z,100582.56
2023-02-17T02:07:15.691Z,100585.72
2023-02-17T02:09:50.324Z,100579.44
2023-02-17T02:12:21.162Z,100565.47
2023-02-17T02:14:51.089Z,100554.91
2023-02-17T02:17:30.624Z,100554.91
2023-02-17T02:20:25.008Z,100559.81
2023-02-17T02:23:14.674Z,100556.16
2023-02-17T02:26:10.480Z,100556.03
2023-02-17T02:28:55.024Z,100541.16
2023-02-17T02:31:43.906Z,100552.19
2023-02-17T02:34:22.102Z,100543.25
2023-02-17T02:36:57.952Z,100525.22
2023-02-17T02:39:31.250Z,100535.81
2023-02-17T02:42:05.461Z,100534.56
2023-02-17T02:44:33.959Z,100523.22
2023-02-17T02:47:04.193Z,100522.16
2023-02-17T02:49:36.995Z,100527.25
2023-02-17T02:52:12.317Z,100520.09
2023-02-17T02:54:54.028Z,100516.41
2023-02-17T02:57:38.387Z,100515.47
2023-02-17T03:00:17.504Z,100519.69
2023-02-17T03:02:52.667Z,100507.16
2023-02-17T03:05:29.842Z,100514.00
2023-02-17T03:08:03.448Z,100512.94
2023-02-17T03:10:32.278Z,100504.03
2023-02-17T03:13:03.548Z,100502.22
2023-02-17T03:15:34.954Z,100508.00
2023-02-17T03:18:04.540Z,100496.03
2023-02-17T03:20:38.971Z,100501.78
2023-02-17T03:23:08.524Z,100503.38
2023-02-17T03:25:37.282Z,100495.50
2023-02-17T03:28:06.112Z,100499.59
2023-02-17T03:30:34.711Z,100497.69
2023-02-17T03:33:03.181Z,100506.19
2023-02-17T03:35:31.599Z,100505.03
2023-02-17T03:38:01.459Z,100498.72
2023-02-17T03:40:29.876Z,100505.53
2023-02-17T03:42:58.485Z,100495.97
2023-02-17T03:45:27.282Z,100494.00
2023-02-17T03:47:55.624Z,100488.63
2023-02-17T03:50:24.124Z,100490.19
2023-02-17T03:52:52.510Z,100496.19
2023-02-17T03:55:22.348Z,100495.84
2023-02-17T03:57:50.734Z,100486.28
2023-02-17T04:00:19.672Z,100493.22
2023-02-17T04:02:48.055Z,100486.78
2023-02-17T04:05:16.519Z,100482.25
2023-02-17T04:07:44.913Z,100483.88
2023-02-17T04:10:13.376Z,100478.63
2023-02-17T04:12:43.249Z,100473.16
2023-02-17T04:15:11.717Z,100481.75
2023-02-17T04:17:40.181Z,100482.50
2023-02-17T04:20:09.542Z,100479.97
2023-02-17T04:22:38.010Z,100477.97
2023-02-17T04:25:06.799Z,100477.97
2023-02-17T04:27:35.239Z,100461.19
2023-02-17T04:30:05.604Z,100475.34
2023-02-17T04:32:34.781Z,100468.28
2023-02-17T04:35:03.267Z,100457.78
2023-02-17T04:37:31.857Z,100451.69
2023-02-17T04:40:00.323Z,100449.06
2023-02-17T04:42:29.013Z,100454.09
2023-02-17T04:44:57.426Z,100447.91
2023-02-17T04:47:27.249Z,100444.31
2023-02-17T04:49:55.798Z,100441.69
2023-02-17T04:52:24.516Z,100448.72
2023-02-17T04:54:53.239Z,100435.72
2023-02-17T04:57:21.686Z,100436.44
2023-02-17T04:59:50.107Z,100440.75
2023-02-17T05:02:18.532Z,100442.41
2023-02-17T05:04:48.728Z,100437.16
2023-02-17T05:07:17.164Z,100433.59
2023-02-17T05:09:45.540Z,100433.59
2023-02-17T05:12:13.991Z,100425.69
2023-02-17T05:14:42.385Z,100419.63
2023-02-17T05:17:10.878Z,100420.44
2023-02-17T05:19:39.439Z,100411.75
2023-02-17T05:22:09.329Z,100421.41
2023-02-17T05:24:38.935Z,100419.50
2023-02-17T05:27:07.543Z,100423.94
2023-02-17T05:29:36.332Z,100417.91
2023-02-17T05:32:04.775Z,100417.81
2023-02-17T05:34:33.552Z,100419.50
2023-02-17T05:37:02.327Z,100419.50
2023-02-17T05:39:32.403Z,100413.19
2023-02-17T05:42:00.788Z,100412.47
2023-02-17T05:44:29.554Z,100403.50
2023-02-17T05:46:57.949Z,100403.28
2023-02-17T05:49:26.426Z,100406.63
2023-02-17T05:51:54.967Z,100398.03
2023-02-17T05:54:23.835Z,100396.84
2023-02-17T05:56:53.812Z,100374.97
2023-02-17T05:59:22.198Z,100398.28
2023-02-17T06:01:50.571Z,100388.72
2023-02-17T06:04:19.101Z,100387.56
2023-02-17T06:06:47.494Z,100383.00
2023-02-17T06:09:15.980Z,100388.03
2023-02-17T06:11:44.356Z,100393.06
2023-02-17T06:14:14.238Z,100393.78
2023-02-17T06:16:42.611Z,100398.81
2023-02-17T06:19:11.061Z,100397.16
2023-02-17T06:21:39.429Z,100404.22
2023-02-17T06:24:08.033Z,100404.06
2023-02-17T06:26:36.490Z,100394.50
2023-02-17T06:29:05.078Z,100409.22
2023-02-17T06:31:35.242Z,100406.47
2023-02-17T06:34:06.354Z,100417.84
2023-02-17T06:36:35.944Z,100406.69
2023-02-17T06:39:04.639Z,100406.69
2023-02-17T06:41:33.138Z,100411.00
2023-02-17T06:44:01.524Z,100405.75
2023-02-17T06:46:29.946Z,100411.13
2023-02-17T06:49:00.352Z,100390.91
2023-02-17T06:51:29.146Z,100398.81
2023-02-17T06:53:57.811Z,100402.16
2023-02-17T06:56:26.318Z,100395.13
2023-02-17T06:58:54.701Z,100393.31
2023-02-17T07:01:26.279Z,100385.94
2023-02-17T07:03:55.335Z,100392.88
2023-02-17T07:06:26.144Z,100390.13
2023-02-17T07:08:54.820Z,100386.41
2023-02-17T07:11:24.173Z,100393.13
2023-02-17T07:13:52.636Z,100395.66
2023-02-17T07:16:21.035Z,100401.50
2023-02-17T07:18:49.466Z,100399.00
2023-02-17T07:21:18.229Z,100401.03
2023-02-17T07:23:48.640Z,100398.78
2023-02-17T07:26:17.677Z,100399.38
2023-02-17T07:28:46.194Z,100401.66
2023-02-17T07:31:16.731Z,100400.47
2023-02-17T07:33:48.228Z,100393.88
2023-02-17T07:36:18.682Z,100399.16
2023-02-17T07:38:48.518Z,100382.53
2023-02-17T07:41:18.551Z,100378.84
2023-02-17T07:43:47.827Z,100375.47
2023-02-17T07:46:16.965Z,100370.22
2023-02-17T07:48:45.341Z,100374.31
2023-02-17T07:51:15.368Z,100367.13
2023-02-17T07:53:43.774Z,100364.97
2023-02-17T07:56:16.397Z,100370.72
2023-02-17T07:58:46.239Z,100356.13
2023-02-17T08:01:17.339Z,100365.06
2023-02-17T08:03:46.106Z,100342.97
2023-02-17T08:06:16.452Z,100359.00
2023-02-17T08:09:02.814Z,100362.91
2023-02-17T08:11:50.047Z,100358.25
2023-02-17T08:14:19.501Z,100359.44
2023-02-17T08:16:47.893Z,100357.41
2023-02-17T08:19:16.426Z,100350.34
2023-02-17T08:21:45.166Z,100342.81
2023-02-17T08:24:14.126Z,100350.09
2023-02-17T08:26:44.161Z,100351.53
2023-02-17T08:29:12.939Z,100338.16
2023-02-17T08:31:41.447Z,100348.50
2023-02-17T08:34:13.286Z,100338.69
2023-02-17T08:36:41.943Z,100352.47
2023-02-17T08:39:14.450Z,100346.97
2023-02-17T08:41:44.793Z,100347.66
2023-02-17T08:44:15.115Z,100353.25
2023-02-17T08:46:44.744Z,100347.88
2023-02-17T08:49:13.771Z,100335.44
2023-02-17T08:51:42.374Z,100329.78
2023-02-17T08:54:12.753Z,100329.41
2023-02-17T08:56:43.877Z,100334.19
2023-02-17T08:59:13.096Z,100332.25
2023-02-17T09:01:42.504Z,100331.75
2023-02-17T09:04:14.099Z,100329.81
2023-02-17T09:06:44.442Z,100334.84
2023-02-17T09:09:15.571Z,100325.97
2023-02-17T09:11:45.690Z,100328.50
2023-02-17T09:14:14.248Z,100330.16
2023-02-17T09:16:42.753Z,100332.66
2023-02-17T09:19:11.229Z,100312.09
2023-02-17T09:21:39.631Z,100335.75
2023-02-17T09:24:08.412Z,100338.28
2023-02-17T09:26:36.978Z,100345.69
2023-02-17T09:29:07.704Z,100333.31
2023-02-17T09:31:37.256Z,100333.66
2023-02-17T09:34:06.650Z,100330.63
2023-02-17T09:36:39.587Z,100333.00
2023-02-17T09:39:08.053Z,100324.00
2023-02-17T09:41:40.976Z,100321.00
2023-02-17T09:44:20.982Z,100314.78
2023-02-17T09:47:02.196Z,100306.50
2023-02-17T09:49:37.998Z,100306.94
2023-02-17T09:52:13.496Z,100303.34
2023-02-17T09:54:51.265Z,100306.25
2023-02-17T09:57:21.503Z,100300.63
2023-02-17T09:59:56.121Z,100301.31
2023-02-17T10:02:32.767Z,100295.91
2023-02-17T10:05:07.302Z,100293.97
2023-02-17T10:07:41.020Z,100292.56
2023-02-17T10:10:13.146Z,100296.50
2023-02-17T10:12:47.774Z,100293.47
2023-02-17T10:15:21.028Z,100295.13
2023-02-17T10:17:55.350Z,100284.06
2023-02-17T10:20:27.312Z,100274.06
2023-02-17T10:23:01.678Z,100273.78
2023-02-17T10:25:48.633Z,100265.19
2023-02-17T10:28:23.733Z,100262.97
2023-02-17T10:31:03.418Z,100261.03
2023-02-17T10:33:38.232Z,100255.50
2023-02-17T10:36:19.459Z,100251.06
2023-02-17T10:38:52.489Z,100249.13
2023-02-17T10:41:24.211Z,100247.19
2023-02-17T10:43:53.153Z,100244.53
2023-02-17T10:46:29.542Z,100242.59
2023-02-17T10:49:00.554Z,100245.25
2023-02-17T10:51:31.301Z,100239.00
2023-02-17T10:54:04.136Z,100240.66
2023-02-17T10:56:38.600Z,100222.03
2023-02-17T10:59:13.498Z,100210.66
2023-02-17T11:01:43.314Z,100199.13
2023-02-17T11:04:14.345Z,100194.28
2023-02-17T11:06:45.759Z,100199.41
2023-02-17T11:09:23.621Z,100187.19
2023-02-17T11:12:00.022Z,100183.28
2023-02-17T11:14:31.331Z,100186.22
2023-02-17T11:17:04.512Z,100178.03
2023-02-17T11:19:35.360Z,100171.78
2023-02-17T11:22:05.864Z,100167.19
2023-02-17T11:24:36.390Z,100164.28
2023-02-17T11:27:09.788Z,100159.41
2023-02-17T11:29:38.615Z,100160.81
2023-02-17T11:32:12.644Z,100150.94
2023-02-17T11:34:43.746Z,100151.34
2023-02-17T11:37:24.010Z,100156.34
2023-02-17T11:39:54.798Z,100145.50
2023-02-17T11:42:24.318Z,100132.72
2023-02-17T11:44:53.513Z,100132.44
2023-02-17T11:47:34.722Z,100122.97
2023-02-17T11:50:38.944Z,100122.97
2023-02-17T11:53:20.155Z,100108.22
2023-02-17T11:56:00.490Z,100107.78
2023-02-17T11:58:52.915Z,100100.13
2023-02-17T12:01:40.843Z,100096.47
2023-02-17T12:04:29.476Z,100086.44
2023-02-17T12:07:21.701Z,100079.47
2023-02-17T12:09:57.478Z,100065.50
2023-02-17T12:12:37.026Z,100063.25
2023-02-17T12:15:21.705Z,100055.72
2023-02-17T12:17:57.519Z,100053.47
2023-02-17T12:20:41.821Z,100043.44
2023-02-17T12:23:24.906Z,100039.53
2023-02-17T12:25:59.751Z,100033.09
2023-02-17T12:28:57.185Z,100047.00
2023-02-17T12:31:44.045Z,100034.50
2023-02-17T12:34:22.994Z,100029.72
2023-02-17T12:36:53.483Z,100025.13
2023-02-17T12:39:25.483Z,100025.28
2023-02-17T12:41:59.984Z,100012.06
2023-02-17T12:44:32.011Z,100015.06
2023-02-17T12:47:06.450Z,100023.00
2023-02-17T12:49:41.738Z,100009.25
2023-02-17T12:52:18.357Z,100002.97
2023-02-17T12:54:53.032Z,99999.50
2023-02-17T12:57:25.562Z,99981.28
2023-02-17T12:59:54.971Z,99981.97
2023-02-17T13:02:25.968Z,99986.59
2023-02-17T13:04:56.397Z,99977.66
2023-02-17T13:07:39.679Z,99987.94
2023-02-17T13:10:19.674Z,99988.94
2023-02-17T13:13:00.665Z,99965.25
2023-02-17T13:15:39.230Z,99966.22
2023-02-17T13:18:13.250Z,99954.28
2023-02-17T13:20:55.162Z,99953.75
2023-02-17T13:23:35.413Z,99955.03
2023-02-17T13:26:25.746Z,99945.06
2023-02-17T13:28:55.888Z,99946.72
2023-02-17T13:31:26.805Z,99920.47
2023-02-17T13:33:57.031Z,99941.09
2023-02-17T13:36:37.342Z,99943.06
2023-02-17T13:39:37.840Z,99921.81
2023-02-17T13:42:26.557Z,99926.13
2023-02-17T13:44:54.938Z,99935.16
2023-02-17T13:47:30.696Z,99912.22
2023-02-17T13:49:59.130Z,99921.66
2023-02-17T13:52:29.610Z,99911.94
2023-02-17T13:55:01.163Z,99903.16
2023-02-17T13:57:31.563Z,99896.75
2023-02-17T14:00:11.803Z,99894.25
2023-02-17T14:02:47.189Z,99890.22
2023-02-17T14:05:21.147Z,99878.75
2023-02-17T14:07:50.631Z,99874.63
2023-02-17T14:10:23.916Z,99870.81
2023-02-17T14:12:52.854Z,99861.22
2023-02-17T14:15:23.794Z,99857.09
2023-02-17T14:17:52.279Z,99846.59
2023-02-17T14:20:32.900Z,99845.97
2023-02-17T14:23:06.407Z,99855.44
2023-02-17T14:25:38.312Z,99836.75
2023-02-17T14:28:19.761Z,99828.84
2023-02-17T14:30:48.853Z,99814.25
2023-02-17T14:33:23.419Z,99816.91
2023-02-17T14:35:54.258Z,99811.31
2023-02-17T14:38:24.830Z,99814.50
2023-02-17T14:40:56.158Z,99797.78
2023-02-17T14:43:25.092Z,99792.66
2023-02-17T14:45:53.712Z,99786.84
2023-02-17T14:48:22.425Z,99793.34
2023-02-17T14:50:51.153Z,99784.88
2023-02-17T14:53:25.189Z,99781.91
2023-02-17T14:56:00.689Z,99786.22
2023-02-17T14:58:30.458Z,99777.63
2023-02-17T15:00:59.553Z,99778.16
2023-02-17T15:03:27.941Z,99769.25
2023-02-17T15:05:57.034Z,99758.81
2023-02-17T15:08:32.281Z,99752.22
2023-02-17T15:11:02.590Z,99743.56
2023-02-17T15:13:32.242Z,99740.38
2023-02-17T15:16:01.039Z,99747.03
2023-02-17T15:18:29.584Z,99728.19
2023-02-17T15:20:58.645Z,99717.50
2023-02-17T15:23:27.417Z,99699.34
2023-02-17T15:25:57.375Z,99708.31
2023-02-17T15:28:27.155Z,99701.88
2023-02-17T15:30:57.277Z,99700.59
2023-02-17T15:33:26.211Z,99695.28
2023-02-17T15:35:55.851Z,99681.91
2023-02-17T15:38:27.401Z,99672.16
2023-02-17T15:40:58.737Z,99656.91
2023-02-17T15:46:15.325Z,99670.00
2023-02-17T15:48:45.050Z,99660.41
2023-02-17T15:51:15.158Z,99646.84
2023-02-17T15:53:43.988Z,99660.72
2023-02-17T15:56:20.481Z,99672.16
2023-02-17T15:58:52.168Z,99660.59
2023-02-17T16:01:28.880Z,99671.50
2023-02-17T16:03:58.108Z,99674.44
2023-02-17T16:06:26.896Z,99675.13
2023-02-17T16:08:55.794Z,99680.91
2023-02-17T16:11:25.036Z,99680.09
2023-02-17T16:13:55.056Z,99662.22
2023-02-17T16:16:25.611Z,99664.00
2023-02-17T16:18:54.389Z,99669.63
2023-02-17T16:21:22.906Z,99669.75
2023-02-17T16:23:52.798Z,99665.63
2023-02-17T16:26:27.220Z,99673.38
2023-02-17T16:28:57.256Z,99675.75
2023-02-17T16:31:26.210Z,99680.34
2023-02-17T16:34:00.520Z,99680.06
2023-02-17T16:36:33.710Z,99689.78
2023-02-17T16:39:08.002Z,99669.75
2023-02-17T16:41:36.348Z,99667.28
2023-02-17T16:44:07.620Z,99666.44
2023-02-17T16:46:38.585Z,99670.38
2023-02-17T16:49:20.314Z,99659.81
2023-02-17T16:51:49.035Z,99659.63
2023-02-17T16:54:19.100Z,99672.34
2023-02-17T16:56:50.113Z,99670.56
2023-02-17T16:59:23.547Z,99664.78
2023-02-17T17:01:53.584Z,99670.75
2023-02-17T17:04:22.587Z,99679.34
2023-02-17T17:06:53.176Z,99675.25
2023-02-17T17:09:23.273Z,99677.13
2023-02-17T17:11:51.952Z,99670.69
2023-02-17T17:14:22.057Z,99684.75
2023-02-17T17:16:55.186Z,99686.75
2023-02-17T17:19:23.683Z,99681.31
2023-02-17T17:21:52.440Z,99690.09
2023-02-17T17:24:21.194Z,99688.41
2023-02-17T17:26:51.748Z,99697.66
2023-02-17T17:29:22.058Z,99697.66
2023-02-17T17:31:51.011Z,99669.34
2023-02-17T17:34:19.585Z,99677.31
2023-02-17T17:36:49.672Z,99683.59
2023-02-17T17:39:19.999Z,99676.28
2023-02-17T17:41:49.579Z,99680.59
2023-02-17T17:44:18.499Z,99666.38
2023-02-17T17:46:48.372Z,99681.94
2023-02-17T17:49:18.593Z,99681.78
2023-02-17T17:51:47.302Z,99682.78
2023-02-17T17:54:15.726Z,99683.91
2023-02-17T17:56:44.974Z,99682.09
2023-02-17T17:59:14.759Z,99688.22
2023-02-17T18:01:45.605Z,99684.75
2023-02-17T18:04:15.841Z,99689.38
2023-02-17T18:06:47.191Z,99695.84
2023-02-17T18:09:31.352Z,99691.03
2023-02-17T18:12:03.197Z,99691.16
2023-02-17T18:14:32.184Z,99685.06
2023-02-17T18:17:00.700Z,99674.31
2023-02-17T18:19:31.079Z,99671.53
2023-02-17T18:21:59.566Z,99670.53
2023-02-17T18:24:28.439Z,99659.09
2023-02-17T18:26:56.965Z,99658.25
2023-02-17T18:29:25.623Z,99674.84
2023-02-17T18:31:54.793Z,99673.19
2023-02-17T18:34:23.294Z,99642.88
2023-02-17T18:36:53.190Z,99650.84
2023-02-17T18:39:21.644Z,99649.06
2023-02-17T18:41:50.064Z,99654.03
2023-02-17T18:44:18.723Z,99652.38
2023-02-17T18:46:47.098Z,99646.09
2023-02-17T18:49:15.465Z,99652.72
2023-02-17T18:51:43.884Z,99653.75
2023-02-17T18:54:14.281Z,99648.13
2023-02-17T18:56:42.874Z,99644.97
2023-02-17T18:59:11.289Z,99647.31
2023-02-17T19:01:41.104Z,99640.22
2023-02-17T19:04:12.012Z,99644.03
2023-02-17T19:06:40.730Z,99648.53
2023-02-17T19:09:09.150Z,99645.25
2023-02-17T19:11:39.431Z,99656.97
2023-02-17T19:14:07.813Z,99644.75
2023-02-17T19:16:36.263Z,99646.94
2023-02-17T19:19:04.940Z,99649.25
2023-02-17T19:21:36.201Z,99660.84
2023-02-17T19:24:05.094Z,99661.03
2023-02-17T19:26:34.378Z,99674.09
2023-02-17T19:29:04.334Z,99660.22
2023-02-17T19:31:32.970Z,99666.19
2023-02-17T19:34:01.443Z,99679.75
2023-02-17T19:36:29.840Z,99703.28
2023-02-17T19:38:59.195Z,99703.94
2023-02-17T19:41:27.587Z,99709.59
2023-02-17T19:43:56.051Z,99707.94
2023-02-17T19:46:25.994Z,99698.94
2023-02-17T19:48:54.562Z,99709.16
2023-02-17T19:51:23.345Z,99707.44
2023-02-17T19:53:51.878Z,99714.31
2023-02-17T19:56:22.712Z,99711.63
2023-02-17T19:58:51.772Z,99704.00
2023-02-17T20:01:22.187Z,99727.56
2023-02-17T20:03:52.483Z,99712.28
2023-02-17T20:06:23.717Z,99715.88
2023-02-17T20:08:55.098Z,99711.16
2023-02-17T20:11:24.112Z,99698.69
2023-02-17T20:13:52.826Z,99724.44
2023-02-17T20:16:21.456Z,99720.16
2023-02-17T20:18:52.097Z,99739.13
2023-02-17T20:21:22.859Z,99723.44
2023-02-17T20:23:51.657Z,99719.16
2023-02-17T20:26:22.892Z,99731.94
2023-02-17T20:28:51.725Z,99699.31
2023-02-17T23:18:53.193Z,99836.91
2023-02-17T23:21:21.565Z,99840.31
2023-02-17T23:23:50.211Z,99851.44
2023-02-17T23:26:18.641Z,99862.63
2023-02-17T23:28:47.431Z,99859.13
2023-02-17T23:31:16.542Z,99861.28
2023-02-17T23:33:44.990Z,99840.41
2023-02-17T23:36:15.462Z,99853.25
2023-02-17T23:38:43.855Z,99846.09
2023-02-17T23:41:12.684Z,99854.16
2023-02-17T23:43:41.560Z,99852.88
2023-02-17T23:46:10.339Z,99847.22
2023-02-17T23:48:38.942Z,99864.78
2023-02-17T23:51:07.502Z,99861.16
2023-02-17T23:53:37.346Z,99860.31
2023-02-17T23:56:08.195Z,99859.94
2023-02-17T23:58:37.205Z,99862.47
